createdAt,value
2023-03-24T00:00:26.656Z,10.64
2023-03-24T00:02:53.842Z,10.64
2023-03-24T00:05:22.791Z,10.64
2023-03-24T00:07:54.377Z,10.59
2023-03-24T00:10:23.430Z,10.64
2023-03-24T00:12:51.499Z,10.55
2023-03-24T00:15:21.625Z,10.62
2023-03-24T00:17:52.826Z,10.63
2023-03-24T00:20:22.401Z,10.60
2023-03-24T00:22:57.199Z,10.50
2023-03-24T00:25:28.437Z,10.50
2023-03-24T00:27:58.412Z,10.51
2023-03-24T00:30:26.633Z,10.39
2023-03-24T00:32:54.315Z,10.38
2023-03-24T00:35:22.102Z,10.41
2023-03-24T00:37:52.062Z,10.37
2023-03-24T00:40:21.678Z,10.38
2023-03-24T00:42:50.583Z,10.34
2023-03-24T00:45:20.892Z,10.39
2023-03-24T00:47:50.364Z,10.38
2023-03-24T00:50:20.683Z,10.27
2023-03-24T00:52:49.361Z,10.40
2023-03-24T00:55:16.819Z,10.33
2023-03-24T00:57:49.812Z,10.43
2023-03-24T01:00:27.248Z,10.41
2023-03-24T01:02:56.809Z,10.47
2023-03-24T01:05:28.347Z,10.48
2023-03-24T01:08:09.343Z,10.52
2023-03-24T01:10:50.283Z,10.43
2023-03-24T01:13:18.338Z,10.36
2023-03-24T01:15:45.485Z,10.40
2023-03-24T01:18:14.789Z,10.43
2023-03-24T01:20:45.885Z,10.43
2023-03-24T01:23:15.620Z,10.41
2023-03-24T01:25:45.499Z,10.35
2023-03-24T01:28:13.150Z,10.43
2023-03-24T01:30:40.702Z,10.44
2023-03-24T01:33:08.100Z,10.44
2023-03-24T01:35:35.668Z,10.55
2023-03-24T01:38:07.616Z,10.59
2023-03-24T01:40:37.198Z,10.52
2023-03-24T01:43:05.360Z,10.32
2023-03-24T01:45:51.212Z,10.69
2023-03-24T01:48:47.571Z,10.69
2023-03-24T01:51:31.645Z,10.63
2023-03-24T01:54:20.408Z,10.62
2023-03-24T01:56:55.791Z,10.59
2023-03-24T01:59:29.026Z,10.55
2023-03-24T02:02:17.602Z,10.47
2023-03-24T02:04:54.261Z,10.56
2023-03-24T02:07:38.956Z,10.58
2023-03-24T02:10:10.353Z,10.57
2023-03-24T02:12:37.521Z,10.25
2023-03-24T02:15:10.543Z,10.46
2023-03-24T02:18:08.305Z,10.59
2023-03-24T02:21:36.997Z,10.61
2023-03-24T02:24:23.713Z,10.64
2023-03-24T02:27:06.333Z,10.53
2023-03-24T02:29:52.177Z,10.55
2023-03-24T02:32:35.343Z,10.55
2023-03-24T02:35:05.519Z,10.55
2023-03-24T02:37:38.563Z,10.54
2023-03-24T02:40:54.506Z,10.57
2023-03-24T02:43:53.816Z,10.59
2023-03-24T02:47:01.362Z,10.64
2023-03-24T02:49:43.497Z,10.59
2023-03-24T02:52:28.953Z,10.61
2023-03-24T02:55:13.842Z,10.61
2023-03-24T02:57:49.761Z,10.75
2023-03-24T03:01:03.106Z,10.59
2023-03-24T03:03:55.823Z,10.79
2023-03-24T03:06:46.443Z,10.79
2023-03-24T03:09:18.177Z,10.84
2023-03-24T03:11:52.420Z,10.86
2023-03-24T03:14:29.868Z,10.80
2023-03-24T03:17:06.432Z,10.89
2023-03-24T03:19:41.587Z,10.76
2023-03-24T03:22:16.757Z,10.80
2023-03-24T03:24:50.663Z,10.88
2023-03-24T03:27:22.338Z,10.83
2023-03-24T03:30:00.398Z,10.84
2023-03-24T03:32:32.145Z,10.74
2023-03-24T03:35:29.323Z,10.88
2023-03-24T03:38:14.771Z,10.87
2023-03-24T03:40:51.662Z,10.91
2023-03-24T03:43:23.144Z,10.90
2023-03-24T03:45:50.337Z,10.90
2023-03-24T03:48:21.732Z,10.89
2023-03-24T03:50:49.749Z,10.94
2023-03-24T03:53:22.652Z,10.95
2023-03-24T03:55:49.909Z,10.88
2023-03-24T03:58:17.328Z,10.89
2023-03-24T04:00:51.632Z,10.86
2023-03-24T04:04:20.434Z,10.88
2023-03-24T04:07:19.834Z,10.73
2023-03-24T04:10:21.811Z,10.71
2023-03-24T04:13:14.473Z,10.70
2023-03-24T04:16:21.178Z,10.54
2023-03-24T04:19:29.757Z,10.60
2023-03-24T04:22:03.164Z,10.49
2023-03-24T04:24:54.835Z,10.53
2023-03-24T04:27:38.691Z,10.51
2023-03-24T04:30:37.411Z,10.43
2023-03-24T04:33:10.152Z,10.33
2023-03-24T04:35:49.534Z,10.29
2023-03-24T04:38:27.745Z,10.27
2023-03-24T04:41:19.882Z,10.21
2023-03-24T04:43:58.965Z,10.22
2023-03-24T04:46:27.291Z,10.19
2023-03-24T04:49:08.079Z,10.14
2023-03-24T04:51:37.451Z,10.11
2023-03-24T04:54:07.564Z,10.10
2023-03-24T04:56:51.063Z,10.12
2023-03-24T04:59:23.609Z,10.12
2023-03-24T05:01:50.972Z,10.00
2023-03-24T05:04:37.166Z,10.05
2023-03-24T05:07:21.533Z,9.89
2023-03-24T05:09:52.406Z,10.04
2023-03-24T05:12:19.551Z,10.05
2023-03-24T05:15:09.471Z,10.01
2023-03-24T05:17:37.409Z,10.01
2023-03-24T05:20:10.987Z,9.90
2023-03-24T05:22:40.625Z,9.93
2023-03-24T05:25:08.413Z,9.93
2023-03-24T05:27:35.345Z,9.84
2023-03-24T05:30:15.016Z,9.96
2023-03-24T05:32:43.458Z,9.95
2023-03-24T05:35:11.781Z,9.90
2023-03-24T05:37:39.423Z,9.82
2023-03-24T05:40:07.421Z,9.89
2023-03-24T05:42:54.276Z,10.00
2023-03-24T05:45:25.619Z,9.91
2023-03-24T05:47:53.525Z,9.99
2023-03-24T05:50:29.638Z,9.97
2023-03-24T05:52:57.373Z,9.95
2023-03-24T05:55:45.950Z,9.99
2023-03-24T05:58:34.810Z,9.89
2023-03-24T06:01:07.568Z,9.98
2023-03-24T06:03:39.215Z,10.01
2023-03-24T06:06:16.805Z,9.99
2023-03-24T06:08:45.282Z,9.75
2023-03-24T06:11:13.878Z,9.99
2023-03-24T06:13:50.727Z,10.01
2023-03-24T06:16:19.049Z,10.02
2023-03-24T06:19:00.936Z,10.01
2023-03-24T06:21:50.697Z,9.97
2023-03-24T06:24:21.598Z,9.95
2023-03-24T06:26:50.472Z,9.95
2023-03-24T06:29:18.277Z,10.02
2023-03-24T06:31:48.476Z,10.03
2023-03-24T06:34:17.082Z,10.05
2023-03-24T06:36:52.688Z,9.89
2023-03-24T06:39:20.303Z,10.01
2023-03-24T06:41:47.660Z,9.93
2023-03-24T06:44:14.710Z,9.98
2023-03-24T06:46:42.856Z,9.87
2023-03-24T06:49:09.952Z,9.97
2023-03-24T06:51:37.178Z,9.96
2023-03-24T06:54:04.604Z,10.00
2023-03-24T06:56:31.721Z,10.05
2023-03-24T06:59:01.481Z,9.94
2023-03-24T07:01:35.391Z,10.07
2023-03-24T07:04:26.011Z,10.08
2023-03-24T07:07:27.829Z,10.05
2023-03-24T07:10:07.888Z,10.15
2023-03-24T07:12:35.713Z,10.04
2023-03-24T07:15:04.709Z,10.08
2023-03-24T07:17:31.896Z,10.09
2023-03-24T07:20:16.127Z,10.18
2023-03-24T07:23:02.427Z,10.15
2023-03-24T07:25:42.460Z,10.14
2023-03-24T07:28:29.766Z,10.05
2023-03-24T07:30:57.092Z,9.99
2023-03-24T07:33:25.145Z,10.12
2023-03-24T07:35:57.561Z,10.06
2023-03-24T07:38:26.832Z,10.15
2023-03-24T07:41:00.035Z,10.04
2023-03-24T07:43:28.832Z,10.03
2023-03-24T07:46:14.299Z,10.02
2023-03-24T07:48:41.401Z,10.02
2023-03-24T07:51:08.666Z,10.08
2023-03-24T07:54:02.074Z,10.06
2023-03-24T07:56:44.084Z,10.06
2023-03-24T07:59:12.358Z,10.04
2023-03-24T08:01:56.984Z,10.06
2023-03-24T08:04:38.672Z,9.90
2023-03-24T08:07:28.348Z,10.02
2023-03-24T08:09:55.276Z,10.01
2023-03-24T08:12:22.325Z,10.06
2023-03-24T08:14:49.699Z,10.07
2023-03-24T08:17:16.624Z,10.00
2023-03-24T08:19:58.485Z,10.14
2023-03-24T08:22:27.324Z,9.81
2023-03-24T08:24:54.259Z,10.13
2023-03-24T08:27:21.580Z,10.06
2023-03-24T08:29:48.515Z,10.12
2023-03-24T08:32:15.492Z,10.08
2023-03-24T08:34:42.488Z,10.07
2023-03-24T08:37:09.519Z,9.99
2023-03-24T08:39:36.447Z,10.04
2023-03-24T08:42:03.767Z,10.05
2023-03-24T08:44:32.885Z,10.02
2023-03-24T08:47:03.796Z,10.19
2023-03-24T08:49:31.009Z,10.25
2023-03-24T08:51:59.522Z,10.33
2023-03-24T08:54:26.770Z,10.32
2023-03-24T08:56:53.817Z,10.49
2023-03-24T08:59:21.007Z,10.50
2023-03-24T09:01:48.382Z,10.31
2023-03-24T09:04:15.556Z,10.52
2023-03-24T09:06:42.805Z,10.60
2023-03-24T09:09:09.767Z,10.65
2023-03-24T09:11:38.502Z,10.63
2023-03-24T09:14:05.776Z,10.65
2023-03-24T09:16:32.860Z,10.61
2023-03-24T09:18:59.881Z,10.58
2023-03-24T09:21:26.844Z,10.60
2023-03-24T09:23:53.870Z,10.59
2023-03-24T09:26:21.531Z,10.56
2023-03-24T09:28:48.485Z,10.54
2023-03-24T09:31:16.038Z,10.46
2023-03-24T09:33:43.102Z,10.53
2023-03-24T09:36:11.309Z,10.58
2023-03-24T09:38:38.504Z,10.33
2023-03-24T09:41:19.448Z,10.57
2023-03-24T09:43:59.238Z,10.62
2023-03-24T09:46:33.808Z,10.59
2023-03-24T09:49:01.088Z,10.56
2023-03-24T09:51:29.195Z,10.58
2023-03-24T09:54:00.833Z,10.61
2023-03-24T09:56:30.912Z,10.64
2023-03-24T09:59:08.317Z,10.64
2023-03-24T10:01:36.523Z,10.25
2023-03-24T10:04:05.151Z,10.37
2023-03-24T10:06:41.970Z,10.73
2023-03-24T10:09:29.126Z,10.71
2023-03-24T10:12:10.086Z,10.64
2023-03-24T10:14:50.289Z,10.53
2023-03-24T10:17:29.206Z,10.54
2023-03-24T10:20:17.273Z,10.54
2023-03-24T10:22:53.176Z,10.50
2023-03-24T10:25:41.370Z,10.44
2023-03-24T10:28:35.264Z,10.30
2023-03-24T10:31:09.880Z,10.39
2023-03-24T10:33:42.961Z,10.34
2023-03-24T10:36:14.880Z,10.32
2023-03-24T10:38:42.442Z,10.32
2023-03-24T10:41:22.605Z,10.29
2023-03-24T10:43:51.968Z,10.27
2023-03-24T10:46:23.614Z,10.28
2023-03-24T10:48:54.733Z,10.12
2023-03-24T10:51:26.776Z,10.50
2023-03-24T10:54:11.182Z,10.56
2023-03-24T10:56:43.910Z,10.79
2023-03-24T11:00:01.798Z,11.00
2023-03-24T11:02:32.201Z,11.11
2023-03-24T11:05:03.739Z,11.09
2023-03-24T11:07:40.783Z,11.15
2023-03-24T11:10:10.486Z,11.12
2023-03-24T11:12:40.978Z,11.15
2023-03-24T11:15:31.535Z,11.17
2023-03-24T11:18:04.361Z,11.08
2023-03-24T11:20:37.501Z,11.15
2023-03-24T11:23:09.855Z,11.16
2023-03-24T11:25:40.574Z,11.28
2023-03-24T11:28:14.910Z,11.39
2023-03-24T11:30:50.770Z,11.54
2023-03-24T11:33:20.810Z,11.80
2023-03-24T11:36:25.181Z,12.12
2023-03-24T11:39:00.446Z,12.60
2023-03-24T11:41:28.252Z,12.95
2023-03-24T11:44:22.585Z,13.25
2023-03-24T11:47:12.611Z,13.40
2023-03-24T11:49:49.032Z,13.44
2023-03-24T11:52:31.608Z,13.31
2023-03-24T11:54:58.571Z,13.24
2023-03-24T11:57:46.173Z,13.04
2023-03-24T12:00:16.421Z,13.05
2023-03-24T12:03:10.185Z,12.79
2023-03-24T12:05:41.815Z,12.85
2023-03-24T12:08:17.852Z,12.58
2023-03-24T12:11:17.460Z,12.59
2023-03-24T12:13:49.774Z,12.41
2023-03-24T12:16:39.279Z,12.21
2023-03-24T12:19:30.858Z,11.97
2023-03-24T12:22:33.760Z,11.82
2023-03-24T12:25:22.026Z,11.86
2023-03-24T12:28:10.576Z,11.85
2023-03-24T12:30:55.886Z,11.87
2023-03-24T12:33:59.079Z,12.04
2023-03-24T12:36:39.202Z,12.12
2023-03-24T12:39:12.509Z,12.25
2023-03-24T12:42:19.400Z,12.42
2023-03-24T12:45:10.593Z,12.34
2023-03-24T12:48:00.769Z,12.37
2023-03-24T12:50:53.103Z,12.47
2023-03-24T12:53:39.840Z,12.45
2023-03-24T12:56:17.638Z,12.46
2023-03-24T12:58:47.466Z,12.46
2023-03-24T13:01:34.158Z,12.46
2023-03-24T13:04:10.633Z,12.44
2023-03-24T13:06:45.555Z,12.54
2023-03-24T13:09:46.346Z,12.64
2023-03-24T13:12:15.909Z,12.62
2023-03-24T13:14:58.032Z,12.55
2023-03-24T13:17:35.003Z,12.56
2023-03-24T13:20:06.486Z,12.68
2023-03-24T13:22:36.331Z,12.40
2023-03-24T13:25:17.778Z,12.26
2023-03-24T13:27:49.212Z,12.18
2023-03-24T13:30:25.256Z,12.19
2023-03-24T13:33:16.465Z,12.16
2023-03-24T13:35:53.744Z,11.98
2023-03-24T13:38:43.673Z,11.98
2023-03-24T13:41:33.810Z,11.75
2023-03-24T13:44:06.670Z,11.87
2023-03-24T13:46:37.787Z,11.90
2023-03-24T13:49:11.686Z,11.83
2023-03-24T13:51:45.247Z,11.76
2023-03-24T13:54:22.167Z,11.59
2023-03-24T13:57:17.286Z,11.88
2023-03-24T14:00:12.213Z,11.92
2023-03-24T14:02:43.789Z,11.82
2023-03-24T14:05:29.187Z,11.63
2023-03-24T14:07:59.209Z,11.80
2023-03-24T14:10:26.182Z,11.77
2023-03-24T14:13:04.443Z,11.73
2023-03-24T14:15:51.793Z,11.72
2023-03-24T14:18:25.611Z,11.71
2023-03-24T14:21:05.721Z,11.60
2023-03-24T14:23:43.415Z,11.54
2023-03-24T14:26:20.157Z,11.53
2023-03-24T14:28:50.487Z,11.47
2023-03-24T14:31:29.462Z,11.43
2023-03-24T14:34:02.667Z,11.29
2023-03-24T14:36:41.120Z,11.33
2023-03-24T14:39:26.587Z,11.30
2023-03-24T14:41:55.324Z,11.23
2023-03-24T14:44:44.995Z,11.30
2023-03-24T14:47:16.278Z,11.16
2023-03-24T14:49:46.561Z,11.16
2023-03-24T14:52:19.588Z,11.14
2023-03-24T14:54:59.526Z,11.12
2023-03-24T14:57:29.579Z,11.11
2023-03-24T15:00:12.162Z,11.03
2023-03-24T15:02:44.775Z,10.94
2023-03-24T15:05:17.261Z,10.92
2023-03-24T15:08:05.681Z,11.04
2023-03-24T15:10:54.849Z,11.11
2023-03-24T15:13:33.029Z,11.08
2023-03-24T15:16:01.310Z,10.97
2023-03-24T15:18:28.888Z,10.77
2023-03-24T15:20:55.930Z,10.88
2023-03-24T15:23:30.472Z,10.93
2023-03-24T15:25:57.667Z,10.89
2023-03-24T15:28:27.380Z,10.88
2023-03-24T15:30:56.406Z,10.89
2023-03-24T15:33:23.772Z,10.77
2023-03-24T15:35:57.290Z,10.84
2023-03-24T15:38:32.467Z,10.90
2023-03-24T15:41:10.357Z,10.86
2023-03-24T15:43:51.090Z,10.84
2023-03-24T15:46:31.487Z,10.72
2023-03-24T15:49:00.083Z,10.38
2023-03-24T15:51:56.184Z,10.61
2023-03-24T15:54:41.231Z,10.64
2023-03-24T15:57:21.887Z,10.63
2023-03-24T15:59:58.860Z,10.59
2023-03-24T16:02:39.170Z,10.55
2023-03-24T16:05:40.377Z,10.53
2023-03-24T16:08:41.198Z,10.54
2023-03-24T16:11:12.180Z,10.49
2023-03-24T16:13:41.288Z,10.48
2023-03-24T16:16:14.535Z,10.48
2023-03-24T16:18:46.227Z,10.43
2023-03-24T16:21:33.451Z,10.45
2023-03-24T16:24:00.779Z,10.38
2023-03-24T16:26:32.863Z,10.02
2023-03-24T16:29:13.343Z,10.31
2023-03-24T16:31:40.282Z,10.33
2023-03-24T16:34:07.277Z,10.32
2023-03-24T16:36:34.546Z,10.35
2023-03-24T16:39:02.738Z,10.35
2023-03-24T16:41:30.278Z,10.32
2023-03-24T16:43:57.292Z,10.32
2023-03-24T16:46:27.366Z,10.30
2023-03-24T16:48:54.806Z,10.25
2023-03-24T16:51:22.268Z,10.22
2023-03-24T16:53:49.325Z,10.22
2023-03-24T16:56:19.504Z,10.20
2023-03-24T16:58:48.207Z,10.19
2023-03-24T17:01:27.551Z,10.18
2023-03-24T17:03:56.070Z,9.96
2023-03-24T17:06:23.711Z,10.14
2023-03-24T17:08:50.921Z,10.15
2023-03-24T17:11:24.159Z,10.16
2023-03-24T17:13:51.735Z,10.09
2023-03-24T17:16:18.735Z,10.08
2023-03-24T17:18:46.122Z,10.12
2023-03-24T17:21:16.915Z,10.10
2023-03-24T17:23:46.971Z,9.97
2023-03-24T17:26:13.959Z,10.01
2023-03-24T17:28:41.027Z,9.93
2023-03-24T17:31:08.281Z,9.89
2023-03-24T17:33:36.665Z,9.76
2023-03-24T17:36:04.330Z,9.75
2023-03-24T17:38:31.375Z,9.57
2023-03-24T17:41:03.277Z,9.30
2023-03-24T17:43:30.965Z,9.59
2023-03-24T17:45:58.792Z,9.54
2023-03-24T17:48:26.467Z,9.29
2023-03-24T17:50:54.160Z,9.44
2023-03-24T17:53:27.077Z,9.31
2023-03-24T17:55:59.040Z,9.37
2023-03-24T17:58:31.960Z,9.32
2023-03-24T18:01:07.743Z,9.21
2023-03-24T18:03:38.109Z,9.14
2023-03-24T18:06:10.167Z,9.12
2023-03-24T18:08:38.424Z,9.02
2023-03-24T18:11:11.147Z,9.09
2023-03-24T18:13:38.492Z,8.91
2023-03-24T18:16:19.839Z,9.01
2023-03-24T18:18:49.748Z,8.95
2023-03-24T18:21:17.717Z,8.84
2023-03-24T18:23:46.747Z,8.88
2023-03-24T18:26:14.957Z,8.55
2023-03-24T18:28:42.996Z,8.76
2023-03-24T18:31:16.070Z,8.74
2023-03-24T18:33:46.124Z,8.71
2023-03-24T18:36:21.644Z,8.59
2023-03-24T18:38:49.190Z,8.65
2023-03-24T18:41:18.583Z,8.59
2023-03-24T18:43:48.208Z,8.52
2023-03-24T18:46:16.617Z,8.62
2023-03-24T18:48:44.102Z,8.62
2023-03-24T18:51:11.674Z,8.59
2023-03-24T18:53:39.240Z,8.43
2023-03-24T18:56:08.128Z,8.46
2023-03-24T18:58:38.212Z,8.49
2023-03-24T19:01:09.785Z,8.46
2023-03-24T19:03:39.103Z,8.39
2023-03-24T19:06:07.514Z,8.36
2023-03-24T19:08:37.998Z,8.01
2023-03-24T19:11:05.588Z,8.33
2023-03-24T19:13:33.424Z,8.34
2023-03-24T19:16:01.754Z,8.34
2023-03-24T19:18:28.754Z,8.34
2023-03-24T19:20:57.693Z,8.17
2023-03-24T19:23:25.869Z,8.22
2023-03-24T19:25:56.326Z,8.16
2023-03-24T19:28:29.734Z,8.19
2023-03-24T19:30:57.527Z,8.09
2023-03-24T19:33:24.502Z,7.97
2023-03-24T19:35:52.290Z,7.95
2023-03-24T19:38:24.053Z,7.50
2023-03-24T19:40:52.901Z,7.99
2023-03-24T19:43:21.693Z,7.83
2023-03-24T19:45:50.218Z,7.88
2023-03-24T19:48:17.602Z,7.85
2023-03-24T19:50:46.166Z,7.78
2023-03-24T19:53:13.591Z,7.72
2023-03-24T19:55:40.751Z,7.56
2023-03-24T19:58:07.880Z,7.61
2023-03-24T20:00:35.140Z,7.60
2023-03-24T20:03:02.337Z,7.58
2023-03-24T20:05:29.441Z,7.43
2023-03-24T20:07:59.762Z,7.34
2023-03-24T20:10:28.174Z,7.37
2023-03-24T20:12:55.616Z,7.43
2023-03-24T20:15:23.044Z,7.38
2023-03-24T20:17:50.023Z,7.32
2023-03-24T20:20:17.051Z,7.43
2023-03-24T20:22:45.914Z,7.37
2023-03-24T20:25:16.191Z,7.32
2023-03-24T20:27:45.485Z,7.11
2023-03-24T20:30:14.414Z,7.00
2023-03-24T20:32:41.411Z,7.25
2023-03-24T20:35:09.251Z,7.17
2023-03-24T20:37:36.483Z,7.20
2023-03-24T20:40:05.501Z,7.09
2023-03-24T20:42:33.786Z,7.14
2023-03-24T20:45:01.022Z,7.11
2023-03-24T20:47:28.137Z,7.12
2023-03-24T20:49:55.366Z,7.09
2023-03-24T20:52:23.416Z,7.04
2023-03-24T20:54:51.535Z,7.04
2023-03-24T20:57:19.390Z,6.96
2023-03-24T20:59:49.531Z,6.85
2023-03-24T21:02:16.624Z,6.96
2023-03-24T21:04:43.741Z,7.02
2023-03-24T21:07:11.443Z,7.02
2023-03-24T21:09:38.555Z,6.99
2023-03-24T21:12:06.724Z,6.84
2023-03-24T21:14:34.167Z,6.90
2023-03-24T21:17:01.567Z,6.84
2023-03-24T21:19:28.735Z,6.89
2023-03-24T21:21:56.655Z,6.93
2023-03-24T21:24:24.396Z,6.95
2023-03-24T21:26:51.566Z,6.96
2023-03-24T21:29:18.602Z,7.04
2023-03-24T21:31:46.126Z,6.80
2023-03-24T21:34:13.083Z,7.12
2023-03-24T21:36:40.543Z,7.16
2023-03-24T21:39:09.327Z,7.23
2023-03-24T21:41:39.025Z,7.21
2023-03-24T21:44:08.562Z,7.28
2023-03-24T21:46:37.054Z,7.28
2023-03-24T21:49:05.197Z,7.24
2023-03-24T21:51:34.640Z,7.24
2023-03-24T21:54:06.650Z,6.97
2023-03-24T21:56:34.869Z,7.24
2023-03-24T21:59:02.004Z,7.25
2023-03-24T22:01:29.672Z,7.15
2023-03-24T22:03:58.895Z,7.18
2023-03-24T22:06:29.296Z,7.21
2023-03-24T22:08:58.796Z,6.65
2023-03-24T22:11:25.948Z,7.13
2023-03-24T22:13:53.871Z,7.24
2023-03-24T22:16:21.119Z,7.21
2023-03-24T22:18:48.084Z,7.17
2023-03-24T22:21:15.090Z,7.23
2023-03-24T22:23:43.041Z,7.25
2023-03-24T22:26:13.226Z,7.23
2023-03-24T22:28:40.788Z,7.20
2023-03-24T22:31:17.404Z,7.07
2023-03-24T22:33:44.805Z,7.14
2023-03-24T22:36:30.506Z,7.15
2023-03-24T22:39:16.238Z,7.07
2023-03-24T22:41:46.232Z,6.91
2023-03-24T22:44:13.552Z,7.03
2023-03-24T22:46:40.787Z,7.04
2023-03-24T22:49:07.757Z,7.11
2023-03-24T22:51:34.732Z,7.12
2023-03-24T22:54:01.669Z,7.11
2023-03-24T22:56:28.720Z,7.09
2023-03-24T22:58:55.700Z,7.11
2023-03-24T23:01:23.022Z,7.05
2023-03-24T23:03:50.015Z,7.02
2023-03-24T23:06:16.970Z,6.92
2023-03-24T23:08:43.984Z,6.97
2023-03-24T23:11:11.886Z,6.93
2023-03-24T23:13:39.044Z,6.87
2023-03-24T23:16:07.040Z,6.76
2023-03-24T23:18:34.088Z,6.75
2023-03-24T23:21:03.119Z,6.76
2023-03-24T23:23:30.114Z,6.65
2023-03-24T23:25:57.560Z,6.60
2023-03-24T23:28:24.681Z,6.57
2023-03-24T23:30:53.706Z,6.53
2023-03-24T23:33:22.386Z,6.49
2023-03-24T23:35:50.955Z,6.39
2023-03-24T23:38:18.058Z,6.33
2023-03-24T23:40:46.055Z,6.38
2023-03-24T23:43:13.549Z,6.33
2023-03-24T23:45:40.954Z,6.23
2023-03-24T23:48:08.238Z,6.29
2023-03-24T23:50:35.288Z,6.30
2023-03-24T23:53:02.265Z,6.22
2023-03-24T23:55:29.444Z,6.22
2023-03-24T23:57:56.787Z,6.30
